sensor_id;sensor_type;location;lat;lon;timestamp;pressure;altitude;pressure_sealevel;temperature;humidity
9690;BME280;4884;42.614;23.340;2022-08-11T00:02:32;105183.38;;;17.46;100.00
9690;BME280;4884;42.614;23.340;2022-08-11T00:05:04;97752.09;;;17.03;100.00
9690;BME280;4884;42.614;23.340;2022-08-11T00:07:30;89403.09;;;17.00;100.00
9690;BME280;4884;42.614;23.340;2022-08-11T00:09:56;84431.19;;;17.19;100.00
9690;BME280;4884;42.614;23.340;2022-08-11T00:12:23;82057.66;;;16.88;100.00
9690;BME280;4884;42.614;23.340;2022-08-11T00:14:59;80086.59;;;17.07;100.00
9690;BME280;4884;42.614;23.340;2022-08-11T00:17:29;75756.94;;;17.01;100.00
9690;BME280;4884;42.614;23.340;2022-08-11T00:20:06;64464.44;;;16.91;100.00
9690;BME280;4884;42.614;23.340;2022-08-11T00:22:34;62163.44;;;17.08;100.00
9690;BME280;4884;42.614;23.340;2022-08-11T00:25:10;58838.44;;;16.93;100.00
9690;BME280;4884;42.614;23.340;2022-08-11T00:27:37;54209.38;;;16.93;100.00
9690;BME280;4884;42.614;23.340;2022-08-11T00:30:05;54189.81;;;16.72;100.00
9690;BME280;4884;42.614;23.340;2022-08-11T00:32:32;52205.97;;;16.70;100.00
9690;BME280;4884;42.614;23.340;2022-08-11T00:34:59;51209.72;;;16.63;100.00
9690;BME280;4884;42.614;23.340;2022-08-11T00:37:25;48921.34;;;16.88;100.00
9690;BME280;4884;42.614;23.340;2022-08-11T00:39:53;46601.34;;;16.75;100.00
9690;BME280;4884;42.614;23.340;2022-08-11T00:45:26;42295.69;;;16.46;100.00
9690;BME280;4884;42.614;23.340;2022-08-11T01:12:42;29490.09;;;16.69;100.00
9690;BME280;4884;42.614;23.340;2022-08-11T01:40:05;24563.50;;;16.56;100.00
9690;BME280;4884;42.614;23.340;2022-08-11T01:45:56;22595.59;;;16.52;100.00
9690;BME280;4884;42.614;23.340;2022-08-11T01:54:03;22273.56;;;16.66;100.00
9690;BME280;4884;42.614;23.340;2022-08-11T01:59:34;19649.34;;;16.55;100.00
9690;BME280;4884;42.614;23.340;2022-08-11T02:02:26;23582.31;;;16.61;100.00
9690;BME280;4884;42.614;23.340;2022-08-11T02:16:16;20948.66;;;16.29;100.00
9690;BME280;4884;42.614;23.340;2022-08-11T02:18:48;20301.16;;;16.47;100.00
9690;BME280;4884;42.614;23.340;2022-08-11T02:21:49;22252.88;;;16.16;100.00
9690;BME280;4884;42.614;23.340;2022-08-11T02:27:37;25531.09;;;16.22;100.00
9690;BME280;4884;42.614;23.340;2022-08-11T02:30:09;24868.25;;;16.06;100.00
9690;BME280;4884;42.614;23.340;2022-08-11T02:36:07;25861.69;;;16.29;100.00
9690;BME280;4884;42.614;23.340;2022-08-11T02:38:57;29799.34;;;16.34;100.00
9690;BME280;4884;42.614;23.340;2022-08-11T02:59:46;34721.09;;;16.29;100.00
9690;BME280;4884;42.614;23.340;2022-08-11T03:02:23;33398.81;;;16.15;100.00
9690;BME280;4884;42.614;23.340;2022-08-11T03:10:20;40286.53;;;15.97;100.00
9690;BME280;4884;42.614;23.340;2022-08-11T03:19:20;36992.38;;;15.85;100.00
9690;BME280;4884;42.614;23.340;2022-08-11T03:24:26;33695.41;;;15.62;100.00
9690;BME280;4884;42.614;23.340;2022-08-11T03:27:07;34684.75;;;15.70;100.00
9690;BME280;4884;42.614;23.340;2022-08-11T03:32:29;34376.63;;;16.03;100.00
9690;BME280;4884;42.614;23.340;2022-08-11T03:34:58;34698.03;;;15.92;100.00
9690;BME280;4884;42.614;23.340;2022-08-11T03:37:38;34697.38;;;15.91;100.00
9690;BME280;4884;42.614;23.340;2022-08-11T03:46:13;34355.34;;;15.68;100.00
9690;BME280;4884;42.614;23.340;2022-08-11T03:51:34;37647.28;;;15.82;100.00
9690;BME280;4884;42.614;23.340;2022-08-11T04:25:16;21298.19;;;16.84;100.00
9690;BME280;4884;42.614;23.340;2022-08-11T04:31:18;23272.56;;;17.02;100.00
9690;BME280;4884;42.614;23.340;2022-08-11T04:33:34;27212.00;;;17.08;100.00
9690;BME280;4884;42.614;23.340;2022-08-11T04:36:40;26231.25;;;17.16;100.00
9690;BME280;4884;42.614;23.340;2022-08-11T05:09:43;56310.69;;;18.16;100.00
9690;BME280;4884;42.614;23.340;2022-08-11T05:12:21;55320.38;;;18.19;100.00
9690;BME280;4884;42.614;23.340;2022-08-11T05:14:51;59957.41;;;18.17;100.00
9690;BME280;4884;42.614;23.340;2022-08-11T05:18:12;62644.31;;;18.48;100.00
9690;BME280;4884;42.614;23.340;2022-08-11T05:20:57;66638.09;;;18.55;100.00
9690;BME280;4884;42.614;23.340;2022-08-11T05:23:50;69969.00;;;18.60;100.00
9690;BME280;4884;42.614;23.340;2022-08-11T05:26:43;73626.00;;;18.57;100.00
9690;BME280;4884;42.614;23.340;2022-08-11T05:29:42;72320.78;;;18.79;100.00
9690;BME280;4884;42.614;23.340;2022-08-11T05:32:39;84972.88;;;18.65;100.00
9690;BME280;4884;42.614;23.340;2022-08-11T05:35:44;101756.78;;;18.96;100.00
9690;BME280;4884;42.614;23.340;2022-08-11T05:38:21;110865.59;;;19.18;100.00
9690;BME280;4884;42.614;23.340;2022-08-11T05:41:10;143952.50;;;19.15;100.00
9690;BME280;4884;42.614;23.340;2022-08-11T05:43:57;152757.81;;;19.30;100.00
9690;BME280;4884;42.614;23.340;2022-08-11T05:46:43;157095.88;;;19.33;100.00
9690;BME280;4884;42.614;23.340;2022-08-11T05:49:32;159648.88;;;19.43;100.00
9690;BME280;4884;42.614;23.340;2022-08-11T05:52:20;150167.28;;;19.58;100.00
9690;BME280;4884;42.614;23.340;2022-08-11T05:55:07;135146.59;;;19.15;100.00
9690;BME280;4884;42.614;23.340;2022-08-11T05:58:03;127031.47;;;19.13;100.00
9690;BME280;4884;42.614;23.340;2022-08-11T06:00:29;128506.16;;;19.71;100.00
9690;BME280;4884;42.614;23.340;2022-08-11T06:02:57;159822.88;;;20.08;100.00
9690;BME280;4884;42.614;23.340;2022-08-11T06:05:38;159933.03;;;20.50;100.00
9690;BME280;4884;42.614;23.340;2022-08-11T06:08:06;159939.84;;;20.52;100.00
9690;BME280;4884;42.614;23.340;2022-08-11T06:10:34;160060.94;;;20.98;100.00
9690;BME280;4884;42.614;23.340;2022-08-11T06:13:02;160084.06;;;21.07;100.00
9690;BME280;4884;42.614;23.340;2022-08-11T06:15:31;160084.06;;;21.07;100.00
9690;BME280;4884;42.614;23.340;2022-08-11T06:17:59;160247.44;;;21.68;100.00
9690;BME280;4884;42.614;23.340;2022-08-11T06:20:25;160380.81;;;22.19;100.00
9690;BME280;4884;42.614;23.340;2022-08-11T06:22:59;160461.22;;;22.49;100.00
9690;BME280;4884;42.614;23.340;2022-08-11T06:25:34;160634.22;;;23.14;100.00
9690;BME280;4884;42.614;23.340;2022-08-11T06:28:05;160831.88;;;23.88;100.00
9690;BME280;4884;42.614;23.340;2022-08-11T06:30:43;160838.66;;;23.91;100.00
9690;BME280;4884;42.614;23.340;2022-08-11T06:33:15;160901.38;;;24.15;100.00
9690;BME280;4884;42.614;23.340;2022-08-11T06:35:50;161028.19;;;24.62;99.82
9690;BME280;4884;42.614;23.340;2022-08-11T06:41:23;160966.78;;;24.39;100.00
9690;BME280;4884;42.614;23.340;2022-08-11T06:46:31;161318.81;;;25.72;90.30
9690;BME280;4884;42.614;23.340;2022-08-11T06:49:01;161243.75;;;25.43;92.06
9690;BME280;4884;42.614;23.340;2022-08-11T06:51:27;161277.88;;;25.56;90.32
9690;BME280;4884;42.614;23.340;2022-08-11T06:53:55;161344.72;;;25.81;91.27
9690;BME280;4884;42.614;23.340;2022-08-11T06:56:24;161378.88;;;25.94;87.86
9690;BME280;4884;42.614;23.340;2022-08-11T06:59:11;161241.03;;;25.42;87.90
9690;BME280;4884;42.614;23.340;2022-08-11T07:02:07;161307.91;;;25.67;87.03
9690;BME280;4884;42.614;23.340;2022-08-11T07:10:11;161462.13;;;26.25;85.08
9690;BME280;4884;42.614;23.340;2022-08-11T07:13:02;161320.16;;;25.72;84.16
9690;BME280;4884;42.614;23.340;2022-08-11T07:15:50;161045.91;;;24.69;90.57
9690;BME280;4884;42.614;23.340;2022-08-11T07:18:26;160988.63;;;24.47;93.51
9690;BME280;4884;42.614;23.340;2022-08-11T07:21:15;161138.66;;;25.04;89.20
9690;BME280;4884;42.614;23.340;2022-08-11T07:24:07;161045.91;;;24.69;93.29
9690;BME280;4884;42.614;23.340;2022-08-11T07:26:54;161163.22;;;25.13;92.78
9690;BME280;4884;42.614;23.340;2022-08-11T07:29:41;161354.25;;;25.85;79.90
9690;BME280;4884;42.614;23.340;2022-08-11T07:32:19;161213.75;;;25.32;80.28
9690;BME280;4884;42.614;23.340;2022-08-11T07:34:51;161209.66;;;25.31;75.01
9690;BME280;4884;42.614;23.340;2022-08-11T07:37:21;161415.72;;;26.08;77.15
9690;BME280;4884;42.614;23.340;2022-08-11T07:39:49;161305.16;;;25.66;81.03
9690;BME280;4884;42.614;23.340;2022-08-11T07:42:20;161564.59;;;26.64;81.64
9690;BME280;4884;42.614;23.340;2022-08-11T07:44:48;161736.66;;;27.29;75.46
9690;BME280;4884;42.614;23.340;2022-08-11T07:47:34;161694.25;;;27.13;69.51
9690;BME280;4884;42.614;23.340;2022-08-11T07:50:18;161452.56;;;26.22;79.23
9690;BME280;4884;42.614;23.340;2022-08-11T07:53:03;161324.25;;;25.74;82.65
9690;BME280;4884;42.614;23.340;2022-08-11T07:55:29;161477.16;;;26.31;81.72
9690;BME280;4884;42.614;23.340;2022-08-11T07:57:57;161275.13;;;25.55;83.88
9690;BME280;4884;42.614;23.340;2022-08-11T08:00:45;161198.75;;;25.26;88.49
9690;BME280;4884;42.614;23.340;2022-08-11T08:03:29;161111.38;;;24.94;88.71
9690;BME280;4884;42.614;23.340;2022-08-11T08:06:15;161059.56;;;24.74;89.13
9690;BME280;4884;42.614;23.340;2022-08-11T08:08:59;160944.97;;;24.31;90.03
9690;BME280;4884;42.614;23.340;2022-08-11T08:11:45;161013.19;;;24.57;85.00
9690;BME280;4884;42.614;23.340;2022-08-11T08:14:30;161084.13;;;24.83;75.47
9690;BME280;4884;42.614;23.340;2022-08-11T08:17:15;161335.19;;;25.78;80.13
9690;BME280;4884;42.614;23.340;2022-08-11T08:19:59;161453.91;;;26.22;78.21
9690;BME280;4884;42.614;23.340;2022-08-11T08:22:25;161615.06;;;26.83;73.12
9690;BME280;4884;42.614;23.340;2022-08-11T08:24:52;161650.59;;;26.96;67.79
9690;BME280;4884;42.614;23.340;2022-08-11T08:27:19;161952.59;;;28.10;64.70
9690;BME280;4884;42.614;23.340;2022-08-11T08:29:45;162026.38;;;28.37;59.91
9690;BME280;4884;42.614;23.340;2022-08-11T08:32:30;162004.47;;;28.29;58.52
9690;BME280;4884;42.614;23.340;2022-08-11T08:34:57;162183.59;;;28.96;59.73
9690;BME280;4884;42.614;23.340;2022-08-11T08:37:25;162152.16;;;28.85;56.70
9690;BME280;4884;42.614;23.340;2022-08-11T08:39:52;162417.50;;;29.84;52.48
9690;BME280;4884;42.614;23.340;2022-08-11T08:42:26;162291.63;;;29.37;52.45
9690;BME280;4884;42.614;23.340;2022-08-11T08:45:04;162485.91;;;30.10;51.76
9690;BME280;4884;42.614;23.340;2022-08-11T08:47:34;162299.88;;;29.40;50.83
9690;BME280;4884;42.614;23.340;2022-08-11T08:50:05;162472.25;;;30.05;50.30
9690;BME280;4884;42.614;23.340;2022-08-11T08:52:38;162524.25;;;30.24;50.54
9690;BME280;4884;42.614;23.340;2022-08-11T08:55:08;162067.38;;;28.53;51.31
9690;BME280;4884;42.614;23.340;2022-08-11T08:57:38;161630.09;;;26.89;58.54
9690;BME280;4884;42.614;23.340;2022-08-11T09:00:07;161414.38;;;26.07;63.00
9690;BME280;4884;42.614;23.340;2022-08-11T09:02:33;161320.16;;;25.72;67.41
9690;BME280;4884;42.614;23.340;2022-08-11T09:05:00;161432.09;;;26.14;71.30
9690;BME280;4884;42.614;23.340;2022-08-11T09:07:26;161889.69;;;27.86;60.99
9690;BME280;4884;42.614;23.340;2022-08-11T09:09:56;162272.53;;;29.30;55.04
9690;BME280;4884;42.614;23.340;2022-08-11T09:12:26;162416.16;;;29.84;51.99
9690;BME280;4884;42.614;23.340;2022-08-11T09:14:54;162469.50;;;30.04;51.08
9690;BME280;4884;42.614;23.340;2022-08-11T09:20:03;162641.94;;;30.68;44.73
9690;BME280;4884;42.614;23.340;2022-08-11T09:22:34;162806.22;;;31.30;48.03
9690;BME280;4884;42.614;23.340;2022-08-11T09:25:20;162822.63;;;31.36;45.05
9690;BME280;4884;42.614;23.340;2022-08-11T09:28:09;162710.41;;;30.94;45.98
9690;BME280;4884;42.614;23.340;2022-08-11T09:30:36;162346.38;;;29.57;48.93
9690;BME280;4884;42.614;23.340;2022-08-11T09:33:03;162176.75;;;28.94;50.81
9690;BME280;4884;42.614;23.340;2022-08-11T09:35:33;161870.53;;;27.79;54.09
9690;BME280;4884;42.614;23.340;2022-08-11T09:38:01;162191.78;;;28.99;49.45
9690;BME280;4884;42.614;23.340;2022-08-11T09:40:47;162639.19;;;30.67;48.65
9690;BME280;4884;42.614;23.340;2022-08-11T09:43:15;162732.31;;;31.02;47.34
9690;BME280;4884;42.614;23.340;2022-08-11T09:46:00;162551.66;;;30.34;47.91
9690;BME280;4884;42.614;23.340;2022-08-11T09:48:29;162094.75;;;28.63;52.26
9690;BME280;4884;42.614;23.340;2022-08-11T09:51:00;162609.13;;;30.56;50.34
9690;BME280;4884;42.614;23.340;2022-08-11T09:53:30;162728.19;;;31.01;46.55
9690;BME280;4884;42.614;23.340;2022-08-11T09:55:56;163017.16;;;32.09;45.93
9690;BME280;4884;42.614;23.340;2022-08-11T09:58:23;162888.44;;;31.61;44.83
9690;BME280;4884;42.614;23.340;2022-08-11T10:00:49;162561.22;;;30.38;46.10
9690;BME280;4884;42.614;23.340;2022-08-11T10:03:20;161958.03;;;28.12;51.26
9690;BME280;4884;42.614;23.340;2022-08-11T10:06:21;161641.00;;;26.93;56.66
9690;BME280;4884;42.614;23.340;2022-08-11T10:09:17;162198.66;;;29.02;54.03
9690;BME280;4884;42.614;23.340;2022-08-11T10:11:44;162532.41;;;30.27;48.80
9690;BME280;4884;42.614;23.340;2022-08-11T10:14:10;162502.31;;;30.16;44.28
9690;BME280;4884;42.614;23.340;2022-08-11T10:16:56;162918.56;;;31.72;45.02
9690;BME280;4884;42.614;23.340;2022-08-11T10:19:23;163021.28;;;32.10;42.45
9690;BME280;4884;42.614;23.340;2022-08-11T10:21:53;162584.47;;;30.47;46.29
9690;BME280;4884;42.614;23.340;2022-08-11T10:24:38;162420.28;;;29.85;47.77
9690;BME280;4884;42.614;23.340;2022-08-11T10:27:24;162614.59;;;30.58;46.83
9690;BME280;4884;42.614;23.340;2022-08-11T10:29:50;162813.09;;;31.32;45.82
9690;BME280;4884;42.614;23.340;2022-08-11T10:32:35;162921.28;;;31.73;44.04
9690;BME280;4884;42.614;23.340;2022-08-11T10:35:20;162987.03;;;31.97;44.10
9690;BME280;4884;42.614;23.340;2022-08-11T10:37:52;162992.50;;;32.00;44.05
9690;BME280;4884;42.614;23.340;2022-08-11T10:40:19;163118.56;;;32.47;41.62
9690;BME280;4884;42.614;23.340;2022-08-11T10:42:53;163115.78;;;32.46;42.50
9690;BME280;4884;42.614;23.340;2022-08-11T10:45:36;163096.66;;;32.39;42.03
9690;BME280;4884;42.614;23.340;2022-08-11T10:48:22;163055.53;;;32.23;41.67
9690;BME280;4884;42.614;23.340;2022-08-11T10:50:49;163028.16;;;32.13;41.66
9690;BME280;4884;42.614;23.340;2022-08-11T10:53:34;162777.50;;;31.19;41.08
9690;BME280;4884;42.614;23.340;2022-08-11T10:56:20;162800.75;;;31.28;43.35
9690;BME280;4884;42.614;23.340;2022-08-11T10:59:07;162895.25;;;31.63;43.92
9690;BME280;4884;42.614;23.340;2022-08-11T11:01:42;163033.66;;;32.15;43.62
9690;BME280;4884;42.614;23.340;2022-08-11T11:09:38;163036.34;;;32.16;42.25
9690;BME280;4884;42.614;23.340;2022-08-11T11:12:12;163184.31;;;32.71;41.57
9690;BME280;4884;42.614;23.340;2022-08-11T11:15:01;163252.81;;;32.97;41.88
9690;BME280;4884;42.614;23.340;2022-08-11T11:18:20;163222.72;;;32.86;41.21
9690;BME280;4884;42.614;23.340;2022-08-11T11:20:52;163352.91;;;33.34;40.37
9690;BME280;4884;42.614;23.340;2022-08-11T11:37:22;163291.28;;;33.11;37.51
9690;BME280;4884;42.614;23.340;2022-08-11T11:39:49;163137.69;;;32.54;40.36
9690;BME280;4884;42.614;23.340;2022-08-11T11:42:15;163320.03;;;33.22;39.56
9690;BME280;4884;42.614;23.340;2022-08-11T11:44:43;163387.19;;;33.47;37.19
9690;BME280;4884;42.614;23.340;2022-08-11T11:47:11;163506.50;;;33.92;38.18
9690;BME280;4884;42.614;23.340;2022-08-11T11:49:40;163373.47;;;33.42;37.78
9690;BME280;4884;42.614;23.340;2022-08-11T11:52:13;163346.06;;;33.32;38.92
9690;BME280;4884;42.614;23.340;2022-08-11T11:54:40;163466.72;;;33.77;38.02
9690;BME280;4884;42.614;23.340;2022-08-11T11:57:06;163362.50;;;33.38;37.29
9690;BME280;4884;42.614;23.340;2022-08-11T11:59:51;163429.72;;;33.63;36.97
9690;BME280;4884;42.614;23.340;2022-08-11T12:02:39;163346.06;;;33.32;38.17
9690;BME280;4884;42.614;23.340;2022-08-11T12:05:06;163502.38;;;33.90;36.15
9690;BME280;4884;42.614;23.340;2022-08-11T12:07:33;163557.19;;;34.11;36.14
9690;BME280;4884;42.614;23.340;2022-08-11T12:10:18;163468.09;;;33.78;36.09
9690;BME280;4884;42.614;23.340;2022-08-11T12:12:45;162782.97;;;31.21;39.92
9690;BME280;4884;42.614;23.340;2022-08-11T12:15:29;162407.94;;;29.80;42.54
9690;BME280;4884;42.614;23.340;2022-08-11T12:17:56;162130.25;;;28.76;43.81
9690;BME280;4884;42.614;23.340;2022-08-11T12:20:23;162273.88;;;29.30;44.71
9690;BME280;4884;42.614;23.340;2022-08-11T12:22:49;162746.00;;;31.07;41.93
9690;BME280;4884;42.614;23.340;2022-08-11T12:25:33;162989.75;;;31.98;43.12
9690;BME280;4884;42.614;23.340;2022-08-11T12:28:19;163111.66;;;32.44;41.95
9690;BME280;4884;42.614;23.340;2022-08-11T12:30:49;163150.09;;;32.59;41.64
9690;BME280;4884;42.614;23.340;2022-08-11T12:33:17;162791.16;;;31.24;42.85
9690;BME280;4884;42.614;23.340;2022-08-11T12:35:43;162869.25;;;31.53;43.22
9690;BME280;4884;42.614;23.340;2022-08-11T12:38:11;162976.06;;;31.93;43.15
9690;BME280;4884;42.614;23.340;2022-08-11T12:40:38;162540.66;;;30.30;45.02
9690;BME280;4884;42.614;23.340;2022-08-11T12:43:26;162001.75;;;28.28;49.47
9690;BME280;4884;42.614;23.340;2022-08-11T12:46:18;161986.72;;;28.22;54.09
9690;BME280;4884;42.614;23.340;2022-08-11T12:48:46;161896.53;;;27.89;58.68
9690;BME280;4884;42.614;23.340;2022-08-11T12:51:34;161903.34;;;27.91;59.46
9690;BME280;4884;42.614;23.340;2022-08-11T12:54:27;161608.25;;;26.80;66.94
9690;BME280;4884;42.614;23.340;2022-08-11T12:57:00;161428.00;;;26.13;72.27
9690;BME280;4884;42.614;23.340;2022-08-11T12:59:58;161344.72;;;25.81;76.72
9690;BME280;4884;42.614;23.340;2022-08-11T13:02:43;161206.91;;;25.29;80.17
9690;BME280;4884;42.614;23.340;2022-08-11T13:05:29;161223.25;;;25.36;81.67
9690;BME280;4884;42.614;23.340;2022-08-11T13:07:59;161112.75;;;24.94;82.95
9690;BME280;4884;42.614;23.340;2022-08-11T13:10:26;161056.88;;;24.73;83.39
9690;BME280;4884;42.614;23.340;2022-08-11T13:13:12;160939.53;;;24.29;88.63
9690;BME280;4884;42.614;23.340;2022-08-11T13:15:38;161022.75;;;24.60;90.82
9690;BME280;4884;42.614;23.340;2022-08-11T13:18:05;160985.88;;;24.46;91.68
9690;BME280;4884;42.614;23.340;2022-08-11T13:20:32;160919.06;;;24.21;94.21
9690;BME280;4884;42.614;23.340;2022-08-11T13:22:59;160829.13;;;23.87;97.26
9690;BME280;4884;42.614;23.340;2022-08-11T13:25:27;160733.69;;;23.51;99.65
9690;BME280;4884;42.614;23.340;2022-08-11T13:27:57;160763.63;;;23.63;100.00
9690;BME280;4884;42.614;23.340;2022-08-11T13:30:28;160722.78;;;23.47;100.00
9690;BME280;4884;42.614;23.340;2022-08-11T13:33:13;160782.72;;;23.70;100.00
9690;BME280;4884;42.614;23.340;2022-08-11T13:35:41;160713.25;;;23.44;100.00
9690;BME280;4884;42.614;23.340;2022-08-11T13:38:07;160747.28;;;23.57;100.00
9690;BME280;4884;42.614;23.340;2022-08-11T13:40:38;160923.19;;;24.23;100.00
9690;BME280;4884;42.614;23.340;2022-08-11T13:43:04;161556.38;;;26.61;86.30
9690;BME280;4884;42.614;23.340;2022-08-11T13:45:30;161757.13;;;27.36;78.58
9690;BME280;4884;42.614;23.340;2022-08-11T13:47:58;161673.78;;;27.05;76.46
9690;BME280;4884;42.614;23.340;2022-08-11T13:50:25;161594.59;;;26.75;76.46
9690;BME280;4884;42.614;23.340;2022-08-11T13:53:12;161669.72;;;27.03;76.46
9690;BME280;4884;42.614;23.340;2022-08-11T13:55:40;161848.69;;;27.71;70.48
9690;BME280;4884;42.614;23.340;2022-08-11T13:58:09;162037.28;;;28.41;63.10
9690;BME280;4884;42.614;23.340;2022-08-11T14:00:35;162182.19;;;28.96;63.87
9690;BME280;4884;42.614;23.340;2022-08-11T14:03:05;162076.94;;;28.56;64.16
9690;BME280;4884;42.614;23.340;2022-08-11T14:05:41;162008.56;;;28.31;61.51
9690;BME280;4884;42.614;23.340;2022-08-11T14:08:12;162031.84;;;28.39;63.76
9690;BME280;4884;42.614;23.340;2022-08-11T14:10:39;161930.69;;;28.01;59.38
9690;BME280;4884;42.614;23.340;2022-08-11T14:13:12;162008.56;;;28.31;58.80
9690;BME280;4884;42.614;23.340;2022-08-11T14:16:02;162068.78;;;28.53;52.96
9690;BME280;4884;42.614;23.340;2022-08-11T14:18:30;161865.06;;;27.77;53.77
9690;BME280;4884;42.614;23.340;2022-08-11T14:20:59;162033.19;;;28.40;55.83
9690;BME280;4884;42.614;23.340;2022-08-11T14:23:49;162226.03;;;29.12;54.46
9690;BME280;4884;42.614;23.340;2022-08-11T14:26:20;161955.28;;;28.11;52.93
9690;BME280;4884;42.614;23.340;2022-08-11T14:31:25;162249.25;;;29.21;56.24
9690;BME280;4884;42.614;23.340;2022-08-11T14:33:54;162271.13;;;29.29;52.43
9690;BME280;4884;42.614;23.340;2022-08-11T14:36:21;162060.50;;;28.50;51.19
9690;BME280;4884;42.614;23.340;2022-08-11T14:38:48;162152.16;;;28.85;53.34
9690;BME280;4884;42.614;23.340;2022-08-11T14:41:14;162242.44;;;29.18;51.16
9690;BME280;4884;42.614;23.340;2022-08-11T14:44:00;162384.69;;;29.72;49.48
9690;BME280;4884;42.614;23.340;2022-08-11T14:46:44;162228.75;;;29.13;52.32
9690;BME280;4884;42.614;23.340;2022-08-11T14:49:28;162242.44;;;29.18;51.06
9690;BME280;4884;42.614;23.340;2022-08-11T14:51:55;161999.00;;;28.27;52.12
9690;BME280;4884;42.614;23.340;2022-08-11T14:54:28;161848.69;;;27.71;54.20
9690;BME280;4884;42.614;23.340;2022-08-11T14:57:12;161774.91;;;27.43;56.32
9690;BME280;4884;42.614;23.340;2022-08-11T14:59:38;161886.91;;;27.85;54.38
9690;BME280;4884;42.614;23.340;2022-08-11T15:02:05;161962.09;;;28.13;54.11
9690;BME280;4884;42.614;23.340;2022-08-11T15:04:50;162004.47;;;28.29;52.08
9690;BME280;4884;42.614;23.340;2022-08-11T15:07:16;162094.75;;;28.63;50.75
9690;BME280;4884;42.614;23.340;2022-08-11T15:09:43;162038.66;;;28.42;50.42
9690;BME280;4884;42.614;23.340;2022-08-11T15:12:09;162111.16;;;28.69;50.10
9690;BME280;4884;42.614;23.340;2022-08-11T15:14:46;161899.25;;;27.90;51.38
9690;BME280;4884;42.614;23.340;2022-08-11T15:17:32;161785.84;;;27.47;53.15
9690;BME280;4884;42.614;23.340;2022-08-11T15:20:08;161406.16;;;26.04;57.12
9690;BME280;4884;42.614;23.340;2022-08-11T15:22:53;161246.50;;;25.44;63.93
9690;BME280;4884;42.614;23.340;2022-08-11T15:25:39;161190.53;;;25.23;70.44
9690;BME280;4884;42.614;23.340;2022-08-11T15:28:08;161090.94;;;24.86;75.37
9690;BME280;4884;42.614;23.340;2022-08-11T15:30:55;161052.75;;;24.72;78.50
9690;BME280;4884;42.614;23.340;2022-08-11T15:33:42;161026.84;;;24.62;81.15
9690;BME280;4884;42.614;23.340;2022-08-11T15:36:29;161045.91;;;24.69;83.53
9690;BME280;4884;42.614;23.340;2022-08-11T15:39:49;161018.66;;;24.59;84.77
9690;BME280;4884;42.614;23.340;2022-08-11T15:42:39;160893.16;;;24.11;81.77
9690;BME280;4884;42.614;23.340;2022-08-11T15:45:29;160965.44;;;24.39;86.12
9690;BME280;4884;42.614;23.340;2022-08-11T15:48:34;160949.06;;;24.33;85.49
9690;BME280;4884;42.614;23.340;2022-08-11T15:51:33;160890.47;;;24.10;85.41
9690;BME280;4884;42.614;23.340;2022-08-11T15:54:04;160855.03;;;23.97;87.28
9690;BME280;4884;42.614;23.340;2022-08-11T15:56:35;160864.56;;;24.01;88.41
9690;BME280;4884;42.614;23.340;2022-08-11T15:59:04;160835.91;;;23.90;88.51
9690;BME280;4884;42.614;23.340;2022-08-11T16:01:50;160803.22;;;23.78;87.74
9690;BME280;4884;42.614;23.340;2022-08-11T16:04:37;160724.13;;;23.48;88.59
9690;BME280;4884;42.614;23.340;2022-08-11T16:07:09;160744.59;;;23.56;90.29
9690;BME280;4884;42.614;23.340;2022-08-11T16:09:47;160732.28;;;23.51;91.05
9690;BME280;4884;42.614;23.340;2022-08-11T16:12:17;160726.84;;;23.49;90.85
9690;BME280;4884;42.614;23.340;2022-08-11T16:14:46;160752.72;;;23.59;89.92
9690;BME280;4884;42.614;23.340;2022-08-11T16:17:34;160715.94;;;23.45;89.53
9690;BME280;4884;42.614;23.340;2022-08-11T16:20:02;160612.44;;;23.06;89.01
9690;BME280;4884;42.614;23.340;2022-08-11T16:22:29;160564.69;;;22.88;90.68
9690;BME280;4884;42.614;23.340;2022-08-11T16:25:19;160621.94;;;23.09;90.84
9690;BME280;4884;42.614;23.340;2022-08-11T16:27:51;160574.22;;;22.91;92.89
9690;BME280;4884;42.614;23.340;2022-08-11T16:30:17;160601.44;;;23.02;92.33
9690;BME280;4884;42.614;23.340;2022-08-11T16:32:45;160576.97;;;22.92;94.88
9690;BME280;4884;42.614;23.340;2022-08-11T16:35:15;160517.00;;;22.70;92.75
9690;BME280;4884;42.614;23.340;2022-08-11T16:38:01;160533.34;;;22.76;93.76
9690;BME280;4884;42.614;23.340;2022-08-11T16:40:48;160481.66;;;22.57;93.50
9690;BME280;4884;42.614;23.340;2022-08-11T16:43:17;160626.03;;;23.11;92.91
9690;BME280;4884;42.614;23.340;2022-08-11T16:46:03;160634.22;;;23.14;91.49
9690;BME280;4884;42.614;23.340;2022-08-11T16:48:49;160548.34;;;22.82;90.75
9690;BME280;4884;42.614;23.340;2022-08-11T16:51:18;160586.50;;;22.96;90.62
9690;BME280;4884;42.614;23.340;2022-08-11T16:53:46;160526.56;;;22.73;91.89
9690;BME280;4884;42.614;23.340;2022-08-11T16:56:20;160447.59;;;22.44;94.58
9690;BME280;4884;42.614;23.340;2022-08-11T16:58:52;160468.00;;;22.51;93.35
9690;BME280;4884;42.614;23.340;2022-08-11T17:01:36;160461.22;;;22.49;94.46
9690;BME280;4884;42.614;23.340;2022-08-11T17:07:06;160439.38;;;22.41;94.81
9690;BME280;4884;42.614;23.340;2022-08-11T17:09:51;160419.00;;;22.33;96.33
9690;BME280;4884;42.614;23.340;2022-08-11T17:12:37;160451.69;;;22.45;94.17
9690;BME280;4884;42.614;23.340;2022-08-11T17:15:24;160413.50;;;22.31;96.76
9690;BME280;4884;42.614;23.340;2022-08-11T17:18:13;160443.47;;;22.42;97.94
9690;BME280;4884;42.614;23.340;2022-08-11T17:21:01;160390.34;;;22.22;93.50
9690;BME280;4884;42.614;23.340;2022-08-11T17:23:31;160419.00;;;22.33;95.79
9690;BME280;4884;42.614;23.340;2022-08-11T17:26:14;160346.78;;;22.06;94.35
9690;BME280;4884;42.614;23.340;2022-08-11T17:28:41;160383.56;;;22.20;96.66
9690;BME280;4884;42.614;23.340;2022-08-11T17:31:07;160369.91;;;22.14;98.11
9690;BME280;4884;42.614;23.340;2022-08-11T17:33:54;160243.34;;;21.67;100.00
9690;BME280;4884;42.614;23.340;2022-08-11T17:36:40;160112.66;;;21.17;100.00
9690;BME280;4884;42.614;23.340;2022-08-11T17:39:09;159969.78;;;20.64;100.00